sensor_id;sensor_type;location;lat;lon;timestamp;pressure;altitude;pressure_sealevel;temperature;humidity
9187;BME280;7273;48.902;9.410;2023-02-11T00:01:11;100059.41;;;-1.06;70.32
9187;BME280;7273;48.902;9.410;2023-02-11T00:03:38;100064.41;;;-1.03;70.50
9187;BME280;7273;48.902;9.410;2023-02-11T00:06:05;100061.25;;;-1.06;70.43
9187;BME280;7273;48.902;9.410;2023-02-11T00:08:34;100061.47;;;-1.00;70.60
9187;BME280;7273;48.902;9.410;2023-02-11T00:10:59;100059.88;;;-1.10;70.47
9187;BME280;7273;48.902;9.410;2023-02-11T00:13:25;100060.34;;;-1.15;70.72
9187;BME280;7273;48.902;9.410;2023-02-11T00:15:51;100061.69;;;-1.11;70.54
9187;BME280;7273;48.902;9.410;2023-02-11T00:18:17;100057.09;;;-1.26;70.77
9187;BME280;7273;48.902;9.410;2023-02-11T00:20:42;100056.00;;;-1.16;70.77
9187;BME280;7273;48.902;9.410;2023-02-11T00:23:08;100050.94;;;-1.27;70.66
9187;BME280;7273;48.902;9.410;2023-02-11T00:25:38;100049.50;;;-1.21;70.53
9187;BME280;7273;48.902;9.410;2023-02-11T00:28:03;100049.66;;;-1.23;70.29
9187;BME280;7273;48.902;9.410;2023-02-11T00:30:29;100047.91;;;-1.32;70.66
9187;BME280;7273;48.902;9.410;2023-02-11T00:32:54;100052.59;;;-1.26;70.75
9187;BME280;7273;48.902;9.410;2023-02-11T00:35:19;100048.22;;;-1.35;70.65
9187;BME280;7273;48.902;9.410;2023-02-11T00:37:45;100050.03;;;-1.36;70.69
9187;BME280;7273;48.902;9.410;2023-02-11T00:40:10;100043.22;;;-1.38;70.83
9187;BME280;7273;48.902;9.410;2023-02-11T00:42:36;100037.84;;;-1.28;70.79
9187;BME280;7273;48.902;9.410;2023-02-11T00:45:02;100044.34;;;-1.41;70.68
9187;BME280;7273;48.902;9.410;2023-02-11T00:47:28;100037.78;;;-1.37;70.89
9187;BME280;7273;48.902;9.410;2023-02-11T00:49:53;100049.81;;;-1.42;70.95
9187;BME280;7273;48.902;9.410;2023-02-11T00:52:19;100050.81;;;-1.43;70.88
9187;BME280;7273;48.902;9.410;2023-02-11T00:54:44;100048.00;;;-1.42;71.04
9187;BME280;7273;48.902;9.410;2023-02-11T00:57:10;100042.69;;;-1.42;70.80
9187;BME280;7273;48.902;9.410;2023-02-11T00:59:35;100038.47;;;-1.34;70.67
9187;BME280;7273;48.902;9.410;2023-02-11T01:02:00;100027.47;;;-1.40;70.82
9187;BME280;7273;48.902;9.410;2023-02-11T01:04:26;100020.53;;;-1.33;70.74
9187;BME280;7273;48.902;9.410;2023-02-11T01:06:51;100018.50;;;-1.39;70.60
9187;BME280;7273;48.902;9.410;2023-02-11T01:09:17;100006.53;;;-1.43;70.72
9187;BME280;7273;48.902;9.410;2023-02-11T01:11:43;100001.41;;;-1.44;70.51
9187;BME280;7273;48.902;9.410;2023-02-11T01:14:09;99996.91;;;-1.44;70.65
9187;BME280;7273;48.902;9.410;2023-02-11T01:16:34;99998.88;;;-1.46;70.68
9187;BME280;7273;48.902;9.410;2023-02-11T01:19:00;100001.75;;;-1.39;70.91
9187;BME280;7273;48.902;9.410;2023-02-11T01:21:25;99997.03;;;-1.27;71.12
9187;BME280;7273;48.902;9.410;2023-02-11T01:23:51;99990.75;;;-1.26;70.85
9187;BME280;7273;48.902;9.410;2023-02-11T01:26:17;99995.16;;;-1.35;70.71
9187;BME280;7273;48.902;9.410;2023-02-11T01:28:42;99992.13;;;-1.40;70.60
9187;BME280;7273;48.902;9.410;2023-02-11T01:31:08;99986.91;;;-1.50;70.50
9187;BME280;7273;48.902;9.410;2023-02-11T01:33:33;99999.66;;;-1.53;70.77
9187;BME280;7273;48.902;9.410;2023-02-11T01:36:03;99989.81;;;-1.61;70.66
9187;BME280;7273;48.902;9.410;2023-02-11T01:38:29;100002.59;;;-1.56;70.71
9187;BME280;7273;48.902;9.410;2023-02-11T01:40:58;100005.66;;;-1.69;70.84
9187;BME280;7273;48.902;9.410;2023-02-11T01:43:24;100013.50;;;-1.77;71.10
9187;BME280;7273;48.902;9.410;2023-02-11T01:48:44;100011.28;;;-1.64;71.52
9187;BME280;7273;48.902;9.410;2023-02-11T01:51:23;100006.53;;;-1.60;71.29
9187;BME280;7273;48.902;9.410;2023-02-11T01:53:50;99997.75;;;-1.61;71.32
9187;BME280;7273;48.902;9.410;2023-02-11T01:56:40;100005.66;;;-1.69;71.28
9187;BME280;7273;48.902;9.410;2023-02-11T01:59:37;99998.81;;;-1.71;71.45
9187;BME280;7273;48.902;9.410;2023-02-11T02:02:08;100000.09;;;-1.75;71.63
9187;BME280;7273;48.902;9.410;2023-02-11T02:04:41;99992.75;;;-1.64;71.67
9187;BME280;7273;48.902;9.410;2023-02-11T02:07:16;99982.81;;;-1.62;71.67
9187;BME280;7273;48.902;9.410;2023-02-11T02:09:48;99984.25;;;-1.50;71.59
9187;BME280;7273;48.902;9.410;2023-02-11T02:12:16;99985.97;;;-1.41;71.55
9187;BME280;7273;48.902;9.410;2023-02-11T02:14:42;99988.19;;;-1.36;71.57
9187;BME280;7273;48.902;9.410;2023-02-11T02:17:22;99984.53;;;-1.35;71.31
9187;BME280;7273;48.902;9.410;2023-02-11T02:22:45;99982.78;;;-1.26;71.54
9187;BME280;7273;48.902;9.410;2023-02-11T02:25:41;99976.50;;;-1.25;71.25
9187;BME280;7273;48.902;9.410;2023-02-11T02:34:08;99950.75;;;-1.33;71.69
9187;BME280;7273;48.902;9.410;2023-02-11T02:39:29;99938.00;;;-1.47;71.83
9187;BME280;7273;48.902;9.410;2023-02-11T02:41:55;99938.00;;;-1.47;72.24
9187;BME280;7273;48.902;9.410;2023-02-11T02:44:21;99934.38;;;-1.46;71.95
9187;BME280;7273;48.902;9.410;2023-02-11T02:46:47;99928.50;;;-1.58;72.15
9187;BME280;7273;48.902;9.410;2023-02-11T02:49:15;99932.06;;;-1.49;71.88
9187;BME280;7273;48.902;9.410;2023-02-11T03:02:11;99923.78;;;-1.20;71.69
9187;BME280;7273;48.902;9.410;2023-02-11T03:04:55;99924.84;;;-1.13;71.48
9187;BME280;7273;48.902;9.410;2023-02-11T03:07:28;99922.34;;;-1.15;71.44
9187;BME280;7273;48.902;9.410;2023-02-11T03:10:04;99910.44;;;-1.03;71.48
9187;BME280;7273;48.902;9.410;2023-02-11T03:12:33;99908.00;;;-0.96;71.48
9187;BME280;7273;48.902;9.410;2023-02-11T03:15:00;99911.16;;;-0.93;71.16
9187;BME280;7273;48.902;9.410;2023-02-11T03:17:27;99905.53;;;-0.90;71.08
9187;BME280;7273;48.902;9.410;2023-02-11T03:19:53;99908.50;;;-0.93;71.27
9187;BME280;7273;48.902;9.410;2023-02-11T03:22:25;99906.75;;;-0.84;71.09
9187;BME280;7273;48.902;9.410;2023-02-11T03:24:52;99916.06;;;-0.80;71.05
9187;BME280;7273;48.902;9.410;2023-02-11T03:30:02;99901.75;;;-0.87;70.87
9187;BME280;7273;48.902;9.410;2023-02-11T03:32:38;99903.91;;;-0.83;71.03
9187;BME280;7273;48.902;9.410;2023-02-11T03:35:22;99900.25;;;-0.82;71.15
9187;BME280;7273;48.902;9.410;2023-02-11T03:40:24;99902.47;;;-0.77;71.07
9187;BME280;7273;48.902;9.410;2023-02-11T03:42:58;99908.41;;;-0.75;71.17
9187;BME280;7273;48.902;9.410;2023-02-11T03:45:24;99913.13;;;-0.69;71.06
9187;BME280;7273;48.902;9.410;2023-02-11T03:47:56;99923.94;;;-0.63;70.83
9187;BME280;7273;48.902;9.410;2023-02-11T03:50:23;99928.41;;;-0.63;71.33
9187;BME280;7273;48.902;9.410;2023-02-11T03:52:50;99927.44;;;-0.62;71.08
9187;BME280;7273;48.902;9.410;2023-02-11T03:55:18;99936.91;;;-0.60;71.09
9187;BME280;7273;48.902;9.410;2023-02-11T03:57:45;99936.38;;;-0.63;71.47
9187;BME280;7273;48.902;9.410;2023-02-11T04:00:12;99930.59;;;-0.51;71.50
9187;BME280;7273;48.902;9.410;2023-02-11T04:02:38;99940.75;;;-0.54;71.21
9187;BME280;7273;48.902;9.410;2023-02-11T04:05:06;99934.78;;;-0.48;71.35
9187;BME280;7273;48.902;9.410;2023-02-11T04:07:32;99927.47;;;-0.54;71.07
9187;BME280;7273;48.902;9.410;2023-02-11T04:09:58;99923.31;;;-0.49;71.20
9187;BME280;7273;48.902;9.410;2023-02-11T04:12:23;99924.47;;;-0.51;71.09
9187;BME280;7273;48.902;9.410;2023-02-11T04:14:49;99926.47;;;-0.53;71.17
9187;BME280;7273;48.902;9.410;2023-02-11T04:17:14;99927.91;;;-0.59;71.16
9187;BME280;7273;48.902;9.410;2023-02-11T04:19:39;99925.94;;;-0.57;71.45
9187;BME280;7273;48.902;9.410;2023-02-11T04:22:05;99924.66;;;-0.53;71.34
9187;BME280;7273;48.902;9.410;2023-02-11T04:24:31;99932.09;;;-0.56;71.37
9187;BME280;7273;48.902;9.410;2023-02-11T04:26:57;99937.28;;;-0.47;71.54
9187;BME280;7273;48.902;9.410;2023-02-11T04:29:22;99927.81;;;-0.49;71.34
9187;BME280;7273;48.902;9.410;2023-02-11T04:31:48;99928.81;;;-0.42;71.53
9187;BME280;7273;48.902;9.410;2023-02-11T04:34:14;99934.66;;;-0.39;71.18
9187;BME280;7273;48.902;9.410;2023-02-11T04:36:39;99925.00;;;-0.48;71.17
9187;BME280;7273;48.902;9.410;2023-02-11T04:39:05;99921.19;;;-0.45;71.43
9187;BME280;7273;48.902;9.410;2023-02-11T04:41:30;99919.19;;;-0.43;71.74
9187;BME280;7273;48.902;9.410;2023-02-11T04:43:56;99919.06;;;-0.34;71.42
9187;BME280;7273;48.902;9.410;2023-02-11T04:46:21;99922.56;;;-0.33;71.61
9187;BME280;7273;48.902;9.410;2023-02-11T04:48:47;99912.75;;;-0.33;71.22
9187;BME280;7273;48.902;9.410;2023-02-11T04:51:12;99915.91;;;-0.29;71.32
9187;BME280;7273;48.902;9.410;2023-02-11T04:53:38;99914.59;;;-0.25;71.12
9187;BME280;7273;48.902;9.410;2023-02-11T04:56:03;99918.91;;;-0.32;71.08
9187;BME280;7273;48.902;9.410;2023-02-11T04:58:29;99916.94;;;-0.22;71.13
9187;BME280;7273;48.902;9.410;2023-02-11T05:00:54;99918.13;;;-0.17;71.39
9187;BME280;7273;48.902;9.410;2023-02-11T05:03:20;99906.81;;;-0.19;71.33
9187;BME280;7273;48.902;9.410;2023-02-11T05:05:45;99902.81;;;-0.07;71.07
9187;BME280;7273;48.902;9.410;2023-02-11T05:08:11;99892.53;;;-0.02;70.91
9187;BME280;7273;48.902;9.410;2023-02-11T05:10:36;99888.72;;;0.01;71.25
9187;BME280;7273;48.902;9.410;2023-02-11T05:13:02;99884.41;;;0.00;71.08
9187;BME280;7273;48.902;9.410;2023-02-11T05:15:28;99881.94;;;0.07;70.80
9187;BME280;7273;48.902;9.410;2023-02-11T05:17:53;99871.59;;;0.12;71.14
9187;BME280;7273;48.902;9.410;2023-02-11T05:20:19;99867.47;;;0.17;70.90
9187;BME280;7273;48.902;9.410;2023-02-11T05:22:44;99874.13;;;0.21;70.91
9187;BME280;7273;48.902;9.410;2023-02-11T05:25:10;99864.78;;;0.25;70.65
9187;BME280;7273;48.902;9.410;2023-02-11T05:27:35;99861.28;;;0.25;70.92
9187;BME280;7273;48.902;9.410;2023-02-11T05:30:01;99863.66;;;0.28;70.99
9187;BME280;7273;48.902;9.410;2023-02-11T05:32:26;99871.97;;;0.33;71.16
9187;BME280;7273;48.902;9.410;2023-02-11T05:34:52;99865.13;;;0.30;70.56
9187;BME280;7273;48.902;9.410;2023-02-11T05:37:17;99873.63;;;0.34;70.94
9187;BME280;7273;48.902;9.410;2023-02-11T05:39:42;99874.44;;;0.34;71.31
9187;BME280;7273;48.902;9.410;2023-02-11T05:42:08;99882.75;;;0.39;71.07
9187;BME280;7273;48.902;9.410;2023-02-11T05:44:33;99859.13;;;0.36;71.33
9187;BME280;7273;48.902;9.410;2023-02-11T05:46:59;99858.31;;;0.36;71.27
9187;BME280;7273;48.902;9.410;2023-02-11T05:49:24;99857.31;;;0.45;71.25
9187;BME280;7273;48.902;9.410;2023-02-11T05:51:50;99858.66;;;0.41;71.53
9187;BME280;7273;48.902;9.410;2023-02-11T05:54:15;99859.13;;;0.36;71.53
9187;BME280;7273;48.902;9.410;2023-02-11T05:56:41;99876.09;;;0.43;71.64
9187;BME280;7273;48.902;9.410;2023-02-11T05:59:07;99881.09;;;0.38;71.64
9187;BME280;7273;48.902;9.410;2023-02-11T06:01:32;99883.25;;;0.43;71.32
9187;BME280;7273;48.902;9.410;2023-02-11T06:03:57;99888.41;;;0.36;71.47
9187;BME280;7273;48.902;9.410;2023-02-11T06:06:24;99894.91;;;0.34;71.23
9187;BME280;7273;48.902;9.410;2023-02-11T06:08:49;99895.22;;;0.39;71.62
9187;BME280;7273;48.902;9.410;2023-02-11T06:11:15;99892.56;;;0.31;71.43
9187;BME280;7273;48.902;9.410;2023-02-11T06:13:42;99897.91;;;0.39;71.25
9187;BME280;7273;48.902;9.410;2023-02-11T06:16:07;99898.72;;;0.39;71.14
9187;BME280;7273;48.902;9.410;2023-02-11T06:18:33;99885.25;;;0.33;70.95
9187;BME280;7273;48.902;9.410;2023-02-11T06:20:58;99890.09;;;0.29;71.08
9187;BME280;7273;48.902;9.410;2023-02-11T06:23:24;99888.72;;;0.33;71.27
9187;BME280;7273;48.902;9.410;2023-02-11T06:25:50;99885.59;;;0.38;71.44
9187;BME280;7273;48.902;9.410;2023-02-11T06:28:16;99882.75;;;0.31;71.47
9187;BME280;7273;48.902;9.410;2023-02-11T06:30:42;99881.44;;;0.27;71.26
9187;BME280;7273;48.902;9.410;2023-02-11T06:33:07;99888.56;;;0.19;71.18
9187;BME280;7273;48.902;9.410;2023-02-11T06:35:32;99883.91;;;0.13;71.55
9187;BME280;7273;48.902;9.410;2023-02-11T06:38:00;99880.41;;;0.12;71.54
9187;BME280;7273;48.902;9.410;2023-02-11T06:40:25;99889.41;;;0.11;71.80
9187;BME280;7273;48.902;9.410;2023-02-11T06:42:50;99882.56;;;0.09;71.44
9187;BME280;7273;48.902;9.410;2023-02-11T06:45:16;99887.41;;;0.21;71.51
9187;BME280;7273;48.902;9.410;2023-02-11T06:47:42;99894.41;;;0.22;71.59
9187;BME280;7273;48.902;9.410;2023-02-11T06:50:10;99887.25;;;0.23;71.41
9187;BME280;7273;48.902;9.410;2023-02-11T06:52:37;99881.94;;;0.31;71.71
9187;BME280;7273;48.902;9.410;2023-02-11T06:55:03;99890.41;;;0.34;71.50
9187;BME280;7273;48.902;9.410;2023-02-11T06:57:29;99889.75;;;0.40;71.37
9187;BME280;7273;48.902;9.410;2023-02-11T06:59:55;99896.72;;;0.41;71.32
9187;BME280;7273;48.902;9.410;2023-02-11T07:02:20;99901.88;;;0.43;71.24
9187;BME280;7273;48.902;9.410;2023-02-11T07:04:46;99901.88;;;0.51;71.68
9187;BME280;7273;48.902;9.410;2023-02-11T07:07:11;99900.53;;;0.55;71.48
9187;BME280;7273;48.902;9.410;2023-02-11T07:09:36;99894.19;;;0.56;71.08
9187;BME280;7273;48.902;9.410;2023-02-11T07:12:02;99896.38;;;0.60;71.39
9187;BME280;7273;48.902;9.410;2023-02-11T07:14:27;99889.72;;;0.64;70.86
9187;BME280;7273;48.902;9.410;2023-02-11T07:16:53;99888.56;;;0.67;70.89
9187;BME280;7273;48.902;9.410;2023-02-11T07:19:18;99880.75;;;0.65;70.99
9187;BME280;7273;48.902;9.410;2023-02-11T07:21:43;99874.75;;;0.63;70.50
9187;BME280;7273;48.902;9.410;2023-02-11T07:24:09;99877.91;;;0.67;70.57
9187;BME280;7273;48.902;9.410;2023-02-11T07:26:35;99882.91;;;0.54;70.26
9187;BME280;7273;48.902;9.410;2023-02-11T07:29:01;99886.06;;;0.65;70.62
9187;BME280;7273;48.902;9.410;2023-02-11T07:31:29;99895.19;;;0.71;70.22
9187;BME280;7273;48.902;9.410;2023-02-11T07:33:57;99895.84;;;0.73;70.34
9187;BME280;7273;48.902;9.410;2023-02-11T07:36:24;99899.69;;;0.78;70.36
9187;BME280;7273;48.902;9.410;2023-02-11T07:38:49;99892.34;;;0.80;70.11
9187;BME280;7273;48.902;9.410;2023-02-11T07:41:18;99884.84;;;0.84;70.56
9187;BME280;7273;48.902;9.410;2023-02-11T07:43:44;99888.50;;;0.91;70.10
9187;BME280;7273;48.902;9.410;2023-02-11T07:46:17;99883.31;;;0.97;70.30
9187;BME280;7273;48.902;9.410;2023-02-11T07:48:43;99883.81;;;1.01;70.05
9187;BME280;7273;48.902;9.410;2023-02-11T07:51:14;99882.47;;;1.05;70.08
9187;BME280;7273;48.902;9.410;2023-02-11T07:53:40;99876.28;;;1.12;70.19
9187;BME280;7273;48.902;9.410;2023-02-11T07:56:07;99879.09;;;1.19;70.61
9187;BME280;7273;48.902;9.410;2023-02-11T07:58:33;99874.09;;;1.24;69.94
9187;BME280;7273;48.902;9.410;2023-02-11T08:01:06;99880.84;;;1.34;70.42
9187;BME280;7273;48.902;9.410;2023-02-11T08:03:33;99880.81;;;1.42;69.94
9187;BME280;7273;48.902;9.410;2023-02-11T08:06:06;99882.28;;;1.53;69.77
9187;BME280;7273;48.902;9.410;2023-02-11T08:08:33;99880.91;;;1.65;70.31
9187;BME280;7273;48.902;9.410;2023-02-11T08:11:11;99887.47;;;1.77;70.18
9187;BME280;7273;48.902;9.410;2023-02-11T08:13:37;99895.44;;;1.85;70.26
9187;BME280;7273;48.902;9.410;2023-02-11T08:16:03;99896.88;;;1.96;70.41
9187;BME280;7273;48.902;9.410;2023-02-11T08:18:30;99906.59;;;2.11;70.16
9187;BME280;7273;48.902;9.410;2023-02-11T08:20:56;99901.34;;;2.26;69.87
9187;BME280;7273;48.902;9.410;2023-02-11T08:23:21;99902.75;;;2.36;69.89
9187;BME280;7273;48.902;9.410;2023-02-11T08:25:46;99906.56;;;2.42;69.38
9187;BME280;7273;48.902;9.410;2023-02-11T08:28:12;99907.75;;;2.54;69.41
9187;BME280;7273;48.902;9.410;2023-02-11T08:30:37;99910.53;;;2.60;69.84
9187;BME280;7273;48.902;9.410;2023-02-11T08:33:03;99909.28;;;2.71;69.31
9187;BME280;7273;48.902;9.410;2023-02-11T08:35:28;99901.22;;;2.79;69.42
9187;BME280;7273;48.902;9.410;2023-02-11T08:37:54;99894.75;;;2.73;69.81
9187;BME280;7273;48.902;9.410;2023-02-11T08:40:19;99893.75;;;2.74;69.75
9187;BME280;7273;48.902;9.410;2023-02-11T08:42:45;99888.69;;;2.80;69.77
9187;BME280;7273;48.902;9.410;2023-02-11T08:45:10;99894.56;;;2.75;69.95
9187;BME280;7273;48.902;9.410;2023-02-11T08:47:37;99877.06;;;2.87;70.09
9187;BME280;7273;48.902;9.410;2023-02-11T08:50:03;99878.94;;;3.01;69.66
9187;BME280;7273;48.902;9.410;2023-02-11T08:52:29;99885.47;;;3.13;69.88
9187;BME280;7273;48.902;9.410;2023-02-11T08:54:54;99889.81;;;3.29;69.62
9187;BME280;7273;48.902;9.410;2023-02-11T08:57:20;99897.66;;;3.45;69.56
9187;BME280;7273;48.902;9.410;2023-02-11T08:59:45;99899.66;;;3.57;69.28
9187;BME280;7273;48.902;9.410;2023-02-11T09:02:12;99900.09;;;3.75;69.16
9187;BME280;7273;48.902;9.410;2023-02-11T09:04:38;99893.56;;;3.99;68.75
9187;BME280;7273;48.902;9.410;2023-02-11T09:07:04;99891.22;;;4.10;68.40
9187;BME280;7273;48.902;9.410;2023-02-11T09:09:29;99888.81;;;4.37;68.57
9187;BME280;7273;48.902;9.410;2023-02-11T09:11:55;99885.09;;;5.48;67.85
9187;BME280;7273;48.902;9.410;2023-02-11T09:14:22;99875.88;;;6.56;66.89
9187;BME280;7273;48.902;9.410;2023-02-11T09:16:49;99862.97;;;7.87;67.03
9187;BME280;7273;48.902;9.410;2023-02-11T09:19:16;99862.81;;;8.76;66.62
9187;BME280;7273;48.902;9.410;2023-02-11T09:21:42;99853.59;;;9.80;67.20
9187;BME280;7273;48.902;9.410;2023-02-11T09:24:07;99853.38;;;10.29;67.67
9187;BME280;7273;48.902;9.410;2023-02-11T09:26:34;99855.50;;;11.03;68.25
9187;BME280;7273;48.902;9.410;2023-02-11T09:29:00;99856.66;;;11.93;68.64
9187;BME280;7273;48.902;9.410;2023-02-11T09:31:27;99849.88;;;11.56;69.60
9187;BME280;7273;48.902;9.410;2023-02-11T09:33:56;99846.59;;;12.50;70.44
9187;BME280;7273;48.902;9.410;2023-02-11T09:36:25;99855.00;;;12.20;72.52
9187;BME280;7273;48.902;9.410;2023-02-11T09:38:51;99866.28;;;11.49;72.27
9187;BME280;7273;48.902;9.410;2023-02-11T09:43:59;99871.56;;;10.63;74.40
9187;BME280;7273;48.902;9.410;2023-02-11T09:46:32;99879.34;;;10.71;73.44
9187;BME280;7273;48.902;9.410;2023-02-11T09:48:59;99885.06;;;10.52;73.18
9187;BME280;7273;48.902;9.410;2023-02-11T09:51:44;99889.13;;;10.13;71.89
9187;BME280;7273;48.902;9.410;2023-02-11T09:54:20;99897.81;;;9.68;71.59
9187;BME280;7273;48.902;9.410;2023-02-11T09:56:47;99899.91;;;9.29;71.62
9187;BME280;7273;48.902;9.410;2023-02-11T09:59:14;99903.66;;;9.04;72.03
9187;BME280;7273;48.902;9.410;2023-02-11T10:01:47;99903.66;;;8.79;71.98
9187;BME280;7273;48.902;9.410;2023-02-11T10:04:56;99903.97;;;8.65;71.08
9187;BME280;7273;48.902;9.410;2023-02-11T10:18:44;99909.28;;;7.58;69.30
9187;BME280;7273;48.902;9.410;2023-02-11T10:23:42;99907.47;;;7.39;69.71
9187;BME280;7273;48.902;9.410;2023-02-11T10:26:15;99901.28;;;7.26;69.59
9187;BME280;7273;48.902;9.410;2023-02-11T10:28:43;99915.19;;;7.10;69.34
9187;BME280;7273;48.902;9.410;2023-02-11T10:31:17;99910.63;;;7.10;69.00
9187;BME280;7273;48.902;9.410;2023-02-11T10:34:08;99900.28;;;7.07;69.52
9187;BME280;7273;48.902;9.410;2023-02-11T10:36:36;99905.44;;;7.22;69.00
9187;BME280;7273;48.902;9.410;2023-02-11T10:39:23;99899.66;;;7.12;68.86
9187;BME280;7273;48.902;9.410;2023-02-11T10:41:56;99896.34;;;7.10;64.80
9187;BME280;7273;48.902;9.410;2023-02-11T10:44:27;99896.97;;;7.05;66.69
9187;BME280;7273;48.902;9.410;2023-02-11T10:46:55;99893.88;;;6.95;67.63
9187;BME280;7273;48.902;9.410;2023-02-11T10:49:38;99882.09;;;6.83;67.67
9187;BME280;7273;48.902;9.410;2023-02-11T10:55:05;99874.38;;;7.19;67.04
9187;BME280;7273;48.902;9.410;2023-02-11T10:58:00;99872.56;;;7.07;65.69
9187;BME280;7273;48.902;9.410;2023-02-11T11:00:37;99870.88;;;7.12;66.70
9187;BME280;7273;48.902;9.410;2023-02-11T11:03:16;99858.06;;;7.14;67.10
9187;BME280;7273;48.902;9.410;2023-02-11T11:05:48;99855.09;;;7.29;67.06
9187;BME280;7273;48.902;9.410;2023-02-11T11:08:14;99858.84;;;7.34;66.50
9187;BME280;7273;48.902;9.410;2023-02-11T11:10:42;99865.25;;;7.40;67.24
9187;BME280;7273;48.902;9.410;2023-02-11T11:13:30;99864.44;;;7.83;66.59
9187;BME280;7273;48.902;9.410;2023-02-11T11:16:27;99874.47;;;8.70;65.11
9187;BME280;7273;48.902;9.410;2023-02-11T11:19:23;99870.63;;;9.26;64.82
9187;BME280;7273;48.902;9.410;2023-02-11T11:21:50;99864.28;;;9.39;63.09
9187;BME280;7273;48.902;9.410;2023-02-11T11:27:00;99855.97;;;10.36;64.71
9187;BME280;7273;48.902;9.410;2023-02-11T11:29:36;99840.78;;;10.35;65.39
9187;BME280;7273;48.902;9.410;2023-02-11T11:32:27;99850.28;;;9.96;65.40
9187;BME280;7273;48.902;9.410;2023-02-11T11:34:56;99844.34;;;9.88;66.30
9187;BME280;7273;48.902;9.410;2023-02-11T11:37:26;99853.56;;;9.98;66.62
9187;BME280;7273;48.902;9.410;2023-02-11T11:39:58;99841.91;;;10.57;65.08
9187;BME280;7273;48.902;9.410;2023-02-11T11:42:30;99843.59;;;10.93;65.03
9187;BME280;7273;48.902;9.410;2023-02-11T11:45:25;99841.88;;;11.72;64.16
9187;BME280;7273;48.902;9.410;2023-02-11T11:47:57;99847.94;;;11.91;66.52
9187;BME280;7273;48.902;9.410;2023-02-11T11:53:17;99838.72;;;12.65;64.32
9187;BME280;7273;48.902;9.410;2023-02-11T11:55:49;99831.63;;;12.31;66.41
9187;BME280;7273;48.902;9.410;2023-02-11T11:58:22;99843.53;;;12.01;67.13
9187;BME280;7273;48.902;9.410;2023-02-11T12:08:35;99842.38;;;10.77;66.33
9187;BME280;7273;48.902;9.410;2023-02-11T12:11:19;99847.75;;;10.42;65.62
9187;BME280;7273;48.902;9.410;2023-02-11T12:17:11;99845.38;;;10.34;67.17
9187;BME280;7273;48.902;9.410;2023-02-11T12:33:10;99856.72;;;9.95;66.65
9187;BME280;7273;48.902;9.410;2023-02-11T12:44:39;99850.75;;;9.75;66.28
9187;BME280;7273;48.902;9.410;2023-02-11T12:50:17;99839.44;;;9.67;65.70
9187;BME280;7273;48.902;9.410;2023-02-11T12:55:37;99835.75;;;9.61;65.49
9187;BME280;7273;48.902;9.410;2023-02-11T12:58:09;99839.75;;;9.59;65.85
9187;BME280;7273;48.902;9.410;2023-02-11T13:00:47;99825.16;;;9.60;65.81
9187;BME280;7273;48.902;9.410;2023-02-11T13:03:20;99820.47;;;9.55;65.35
9187;BME280;7273;48.902;9.410;2023-02-11T13:05:53;99814.75;;;9.63;64.55
9187;BME280;7273;48.902;9.410;2023-02-11T13:08:31;99809.25;;;9.70;64.63
9187;BME280;7273;48.902;9.410;2023-02-11T13:13:41;99804.38;;;9.78;65.27
9187;BME280;7273;48.902;9.410;2023-02-11T13:27:03;99787.50;;;9.94;63.66
9187;BME280;7273;48.902;9.410;2023-02-11T13:37:36;99789.28;;;10.41;62.92
9187;BME280;7273;48.902;9.410;2023-02-11T13:42:50;99793.22;;;10.68;62.97
9187;BME280;7273;48.902;9.410;2023-02-11T13:45:39;99785.22;;;10.85;62.62
9187;BME280;7273;48.902;9.410;2023-02-11T13:48:16;99787.09;;;10.73;62.35
9187;BME280;7273;48.902;9.410;2023-02-11T13:50:53;99779.09;;;10.66;63.06
9187;BME280;7273;48.902;9.410;2023-02-11T13:53:20;99786.63;;;10.64;63.31
9187;BME280;7273;48.902;9.410;2023-02-11T13:55:49;99788.28;;;10.65;62.74
9187;BME280;7273;48.902;9.410;2023-02-11T14:00:52;99781.78;;;10.43;61.65
9187;BME280;7273;48.902;9.410;2023-02-11T14:03:29;99781.06;;;10.36;61.94
9187;BME280;7273;48.902;9.410;2023-02-11T14:06:16;99778.09;;;10.38;62.70
9187;BME280;7273;48.902;9.410;2023-02-11T14:11:49;99777.09;;;10.50;63.09
9187;BME280;7273;48.902;9.410;2023-02-11T14:14:25;99779.19;;;10.48;62.78
9187;BME280;7273;48.902;9.410;2023-02-11T14:19:42;99778.25;;;10.54;62.12
9187;BME280;7273;48.902;9.410;2023-02-11T14:27:19;99775.53;;;10.54;58.24
9187;BME280;7273;48.902;9.410;2023-02-11T14:33:01;99777.97;;;10.33;61.95
9187;BME280;7273;48.902;9.410;2023-02-11T14:41:22;99783.78;;;10.07;62.73
9187;BME280;7273;48.902;9.410;2023-02-11T14:43:51;99779.50;;;9.88;61.82
9187;BME280;7273;48.902;9.410;2023-02-11T14:46:19;99786.19;;;9.85;62.53
9187;BME280;7273;48.902;9.410;2023-02-11T14:48:48;99788.53;;;9.82;63.05
9187;BME280;7273;48.902;9.410;2023-02-11T14:51:37;99792.13;;;9.76;63.32
9187;BME280;7273;48.902;9.410;2023-02-11T14:54:14;99793.03;;;9.70;63.43
9187;BME280;7273;48.902;9.410;2023-02-11T14:56:42;99793.72;;;9.65;63.44
9187;BME280;7273;48.902;9.410;2023-02-11T14:59:16;99797.59;;;9.69;63.97
9187;BME280;7273;48.902;9.410;2023-02-11T15:01:45;99794.69;;;9.71;64.16
9187;BME280;7273;48.902;9.410;2023-02-11T15:04:27;99807.25;;;9.65;63.95
9187;BME280;7273;48.902;9.410;2023-02-11T15:06:54;99817.53;;;9.57;64.55
9187;BME280;7273;48.902;9.410;2023-02-11T15:09:43;99817.28;;;9.58;63.69
9187;BME280;7273;48.902;9.410;2023-02-11T15:12:19;99810.63;;;9.61;63.88
9187;BME280;7273;48.902;9.410;2023-02-11T15:14:49;99801.69;;;9.60;64.16
9187;BME280;7273;48.902;9.410;2023-02-11T15:17:18;99811.38;;;9.49;61.78
9187;BME280;7273;48.902;9.410;2023-02-11T15:19:47;99815.44;;;9.40;64.00
9187;BME280;7273;48.902;9.410;2023-02-11T15:22:26;99812.59;;;9.35;64.06
9187;BME280;7273;48.902;9.410;2023-02-11T15:27:25;99827.16;;;9.16;64.20
9187;BME280;7273;48.902;9.410;2023-02-11T15:29:51;99822.16;;;9.13;64.52
9187;BME280;7273;48.902;9.410;2023-02-11T15:32:19;99825.22;;;8.99;64.77
9187;BME280;7273;48.902;9.410;2023-02-11T15:34:46;99838.16;;;8.97;64.50
9187;BME280;7273;48.902;9.410;2023-02-11T15:37:18;99835.28;;;8.92;64.90
9187;BME280;7273;48.902;9.410;2023-02-11T15:39:44;99829.34;;;8.83;64.85
9187;BME280;7273;48.902;9.410;2023-02-11T15:42:26;99830.06;;;8.72;64.40
9187;BME280;7273;48.902;9.410;2023-02-11T15:47:39;99831.59;;;8.62;64.55
9187;BME280;7273;48.902;9.410;2023-02-11T15:50:06;99831.03;;;8.53;64.96
9187;BME280;7273;48.902;9.410;2023-02-11T15:52:32;99828.78;;;8.50;64.82
9187;BME280;7273;48.902;9.410;2023-02-11T15:54:59;99837.78;;;8.44;64.56
9187;BME280;7273;48.902;9.410;2023-02-11T15:57:26;99842.38;;;8.37;64.88
9187;BME280;7273;48.902;9.410;2023-02-11T15:59:53;99841.59;;;8.30;64.51
9187;BME280;7273;48.902;9.410;2023-02-11T16:02:31;99844.72;;;8.27;65.02
9187;BME280;7273;48.902;9.410;2023-02-11T16:04:59;99850.97;;;8.21;65.09